createdAt,value
2023-01-17T00:03:58.114Z,8.95
2023-01-17T00:06:44.849Z,9.70
2023-01-17T00:09:54.361Z,9.40
2023-01-17T00:12:23.456Z,8.88
2023-01-17T00:14:57.147Z,9.10
2023-01-17T00:17:27.686Z,8.43
2023-01-17T00:20:15.182Z,9.25
2023-01-17T00:23:06.133Z,7.93
2023-01-17T00:26:05.674Z,8.73
2023-01-17T00:28:48.105Z,7.93
2023-01-17T00:31:17.490Z,8.68
2023-01-17T00:33:45.518Z,8.40
2023-01-17T00:36:19.743Z,7.82
2023-01-17T00:38:52.985Z,8.05
2023-01-17T00:41:43.541Z,8.45
2023-01-17T00:47:58.460Z,6.82
2023-01-17T00:50:45.213Z,7.95
2023-01-17T00:53:35.825Z,7.68
2023-01-17T00:56:25.993Z,8.90
2023-01-17T00:59:14.047Z,7.97
2023-01-17T01:02:01.107Z,8.07
2023-01-17T01:04:50.128Z,7.13
2023-01-17T01:07:36.683Z,6.82
2023-01-17T01:10:30.456Z,6.32
2023-01-17T01:13:21.281Z,6.90
2023-01-17T01:16:12.438Z,7.28
2023-01-17T01:19:05.914Z,6.57
2023-01-17T01:21:55.096Z,6.70
2023-01-17T01:24:41.954Z,6.13
2023-01-17T01:27:33.850Z,6.32
2023-01-17T01:30:26.466Z,5.88
2023-01-17T01:33:19.197Z,6.60
2023-01-17T01:35:52.538Z,6.30
2023-01-17T01:40:56.815Z,6.13
2023-01-17T01:43:45.582Z,5.72
2023-01-17T01:46:37.083Z,6.57
2023-01-17T01:49:18.988Z,5.88
2023-01-17T01:51:58.486Z,5.50
2023-01-17T01:54:36.942Z,6.03
2023-01-17T01:57:16.885Z,6.80
2023-01-17T01:59:51.708Z,7.28
2023-01-17T02:02:22.579Z,7.00
2023-01-17T02:05:04.964Z,6.78
2023-01-17T02:07:53.082Z,6.85
2023-01-17T02:10:30.601Z,7.07
2023-01-17T02:12:59.842Z,6.10
2023-01-17T02:15:43.104Z,6.22
2023-01-17T02:18:19.466Z,6.78
2023-01-17T02:21:09.487Z,6.20
2023-01-17T02:23:57.545Z,6.35
2023-01-17T02:27:02.072Z,6.38
2023-01-17T02:30:01.412Z,7.00
2023-01-17T02:32:45.537Z,6.10
2023-01-17T02:36:09.898Z,6.18
2023-01-17T02:39:04.186Z,5.88
2023-01-17T02:41:41.784Z,5.53
2023-01-17T02:44:26.444Z,5.43
2023-01-17T02:46:59.434Z,5.65
2023-01-17T02:49:35.603Z,5.90
2023-01-17T02:52:47.484Z,5.65
2023-01-17T02:55:30.026Z,6.72
2023-01-17T03:02:08.349Z,6.03
2023-01-17T03:05:21.011Z,4.55
2023-01-17T03:08:12.312Z,5.13
2023-01-17T03:10:52.152Z,5.15
2023-01-17T03:13:38.794Z,4.35
2023-01-17T03:16:24.525Z,5.35
2023-01-17T03:19:06.875Z,4.72
2023-01-17T03:21:38.487Z,4.50
2023-01-17T03:24:07.083Z,4.75
2023-01-17T03:26:47.916Z,5.10
2023-01-17T03:29:18.023Z,4.78
2023-01-17T03:31:47.105Z,4.78
2023-01-17T03:34:16.947Z,4.13
2023-01-17T03:36:44.736Z,5.30
2023-01-17T03:39:18.903Z,4.20
2023-01-17T03:41:46.978Z,4.70
2023-01-17T03:44:23.006Z,4.25
2023-01-17T03:46:51.281Z,5.05
2023-01-17T03:49:23.011Z,4.95
2023-01-17T03:51:53.342Z,4.32
2023-01-17T03:54:24.714Z,4.70
2023-01-17T03:56:54.602Z,4.82
2023-01-17T03:59:22.443Z,4.78
2023-01-17T04:02:04.718Z,4.90
2023-01-17T04:04:32.505Z,4.95
2023-01-17T04:07:00.672Z,4.47
2023-01-17T04:09:28.632Z,4.88
2023-01-17T04:11:57.237Z,4.20
2023-01-17T04:14:25.150Z,4.57
2023-01-17T04:16:53.398Z,3.63
2023-01-17T04:19:22.837Z,4.80
2023-01-17T04:21:54.139Z,4.72
2023-01-17T04:24:25.009Z,4.68
2023-01-17T04:26:53.045Z,4.70
2023-01-17T04:29:23.314Z,4.50
2023-01-17T04:31:51.584Z,4.95
2023-01-17T04:34:19.640Z,4.80
2023-01-17T04:36:48.746Z,4.57
2023-01-17T04:39:16.636Z,4.40
2023-01-17T04:41:44.480Z,4.00
2023-01-17T04:44:12.272Z,4.30
2023-01-17T04:46:40.223Z,4.35
2023-01-17T04:49:12.093Z,3.85
2023-01-17T04:51:49.116Z,4.07
2023-01-17T04:56:49.098Z,4.25
2023-01-17T04:59:18.986Z,4.38
2023-01-17T05:04:25.302Z,4.57
2023-01-17T05:06:55.902Z,5.20
2023-01-17T05:09:24.118Z,5.60
2023-01-17T05:12:12.725Z,4.93
2023-01-17T05:14:44.192Z,4.65
2023-01-17T05:17:15.858Z,5.43
2023-01-17T05:19:43.808Z,5.57
2023-01-17T05:22:15.668Z,4.53
2023-01-17T05:24:49.398Z,5.10
2023-01-17T05:27:17.471Z,3.78
2023-01-17T05:29:48.209Z,4.43
2023-01-17T05:32:27.736Z,3.65
2023-01-17T05:35:22.100Z,3.30
2023-01-17T05:38:01.135Z,3.58
2023-01-17T05:40:36.302Z,3.78
2023-01-17T05:43:04.746Z,4.38
2023-01-17T05:45:36.119Z,4.03
2023-01-17T05:48:09.799Z,4.68
2023-01-17T05:50:38.922Z,4.57
2023-01-17T05:53:10.616Z,3.92
2023-01-17T05:55:56.204Z,3.97
2023-01-17T05:58:28.266Z,4.28
2023-01-17T06:00:59.185Z,4.35
2023-01-17T06:03:31.972Z,3.83
2023-01-17T06:06:08.559Z,3.95
2023-01-17T06:08:43.212Z,3.75
2023-01-17T06:11:11.542Z,4.22
2023-01-17T06:13:39.708Z,4.35
2023-01-17T06:16:27.517Z,5.45
2023-01-17T06:18:57.861Z,3.50
2023-01-17T06:21:30.746Z,3.78
2023-01-17T06:23:59.116Z,4.47
2023-01-17T06:26:27.163Z,4.00
2023-01-17T06:28:58.433Z,4.00
2023-01-17T06:31:29.403Z,4.57
2023-01-17T06:34:04.743Z,4.05
2023-01-17T06:36:36.449Z,4.20
2023-01-17T06:39:07.515Z,4.60
2023-01-17T06:41:35.710Z,4.10
2023-01-17T06:44:17.814Z,3.80
2023-01-17T06:47:14.650Z,4.20
2023-01-17T06:49:50.718Z,3.72
2023-01-17T06:52:21.729Z,3.88
2023-01-17T06:54:59.007Z,3.60
2023-01-17T06:57:34.351Z,4.35
2023-01-17T07:00:13.152Z,4.28
2023-01-17T07:02:56.717Z,4.15
2023-01-17T07:05:36.402Z,5.03
2023-01-17T07:08:31.312Z,4.50
2023-01-17T07:11:01.626Z,5.18
2023-01-17T07:16:25.578Z,7.15
2023-01-17T07:18:55.555Z,8.85
2023-01-17T07:21:30.066Z,7.63
2023-01-17T07:24:07.812Z,7.47
2023-01-17T07:26:56.486Z,6.60
2023-01-17T07:29:29.875Z,6.45
2023-01-17T07:32:13.633Z,7.88
2023-01-17T07:35:06.215Z,6.97
2023-01-17T07:37:39.176Z,7.22
2023-01-17T07:40:18.819Z,7.10
2023-01-17T07:42:49.326Z,6.93
2023-01-17T07:45:28.085Z,6.88
2023-01-17T07:48:02.852Z,7.72
2023-01-17T07:50:31.068Z,7.25
2023-01-17T07:53:33.835Z,9.35
2023-01-17T07:56:07.658Z,8.77
2023-01-17T07:58:48.033Z,8.00
2023-01-17T08:01:34.613Z,6.82
2023-01-17T08:04:18.285Z,5.90
2023-01-17T08:09:52.161Z,5.93
2023-01-17T08:12:26.266Z,5.82
2023-01-17T08:15:05.867Z,5.45
2023-01-17T08:17:41.392Z,5.95
2023-01-17T08:21:29.019Z,5.68
2023-01-17T08:24:19.349Z,5.25
2023-01-17T08:26:57.421Z,4.68
2023-01-17T08:29:34.560Z,5.07
2023-01-17T08:32:20.479Z,5.13
2023-01-17T08:35:14.683Z,5.63
2023-01-17T08:38:26.926Z,5.00
2023-01-17T08:43:53.472Z,4.25
2023-01-17T08:46:24.876Z,4.93
2023-01-17T08:48:58.970Z,5.63
2023-01-17T08:51:33.745Z,5.47
2023-01-17T08:54:02.517Z,4.85
2023-01-17T08:56:30.256Z,4.68
2023-01-17T08:59:07.533Z,6.10
2023-01-17T09:01:43.335Z,5.07
2023-01-17T09:04:15.287Z,6.35
2023-01-17T09:06:56.595Z,7.25
2023-01-17T09:09:31.053Z,9.05
2023-01-17T09:12:05.046Z,8.35
2023-01-17T09:14:33.747Z,7.97
2023-01-17T09:17:15.794Z,7.57
2023-01-17T09:19:50.964Z,5.80
2023-01-17T09:22:19.019Z,6.10
2023-01-17T09:24:46.966Z,6.80
2023-01-17T09:27:14.684Z,5.50
2023-01-17T09:29:54.732Z,5.93
2023-01-17T09:32:32.037Z,5.90
2023-01-17T09:35:11.161Z,6.57
2023-01-17T09:37:42.378Z,5.95
2023-01-17T09:40:18.183Z,5.55
2023-01-17T09:42:47.899Z,5.30
2023-01-17T09:45:20.095Z,6.13
2023-01-17T09:51:26.300Z,5.60
2023-01-17T09:54:03.789Z,5.60
2023-01-17T09:56:42.966Z,5.55
2023-01-17T09:59:45.429Z,7.38
2023-01-17T10:02:37.047Z,6.63
2023-01-17T10:05:27.460Z,5.97
2023-01-17T10:08:12.310Z,6.60
2023-01-17T10:11:06.987Z,5.75
2023-01-17T10:13:53.676Z,6.60
2023-01-17T10:17:08.901Z,7.05
2023-01-17T10:19:59.576Z,7.25
2023-01-17T10:22:58.095Z,6.47
2023-01-17T10:25:34.714Z,6.28
2023-01-17T10:28:23.368Z,7.38
2023-01-17T10:30:54.824Z,7.32
2023-01-17T10:33:33.906Z,10.32
2023-01-17T10:36:23.650Z,10.85
2023-01-17T10:38:57.374Z,11.30
2023-01-17T10:41:34.528Z,14.25
2023-01-17T10:44:02.317Z,11.63
2023-01-17T10:46:45.288Z,10.75
2023-01-17T10:49:23.620Z,11.63
2023-01-17T10:52:23.327Z,11.15
2023-01-17T10:55:10.687Z,12.25
2023-01-17T10:57:44.058Z,10.38
2023-01-17T11:00:30.484Z,11.38
2023-01-17T11:02:59.691Z,9.25
2023-01-17T11:05:32.767Z,9.13
2023-01-17T11:08:06.815Z,11.63
2023-01-17T11:10:42.467Z,12.43
2023-01-17T11:13:37.014Z,12.48
2023-01-17T11:16:09.902Z,14.07
2023-01-17T11:18:40.876Z,15.75
2023-01-17T11:21:23.404Z,14.77
2023-01-17T11:23:56.947Z,12.38
2023-01-17T11:26:33.117Z,11.40
2023-01-17T11:29:26.798Z,11.30
2023-01-17T11:31:56.379Z,11.95
2023-01-17T11:34:26.635Z,13.50
2023-01-17T11:37:19.751Z,13.43
2023-01-17T11:39:48.376Z,14.00
2023-01-17T11:42:37.297Z,13.82
2023-01-17T11:45:26.310Z,13.23
2023-01-17T11:48:10.258Z,12.77
2023-01-17T11:50:42.357Z,12.82
2023-01-17T11:53:48.700Z,12.07
2023-01-17T11:56:33.700Z,10.45
2023-01-17T11:59:34.487Z,11.48
2023-01-17T12:02:31.928Z,13.38
2023-01-17T12:05:36.986Z,12.30
2023-01-17T12:08:10.669Z,13.45
2023-01-17T12:11:14.917Z,15.02
2023-01-17T12:14:01.747Z,14.80
2023-01-17T12:16:41.905Z,11.63
2023-01-17T12:19:33.915Z,11.73
2023-01-17T12:22:02.644Z,11.93
2023-01-17T12:24:49.208Z,12.40
2023-01-17T12:27:23.077Z,12.02
2023-01-17T12:30:09.158Z,10.80
2023-01-17T12:33:08.982Z,10.40
2023-01-17T12:35:59.025Z,11.23
2023-01-17T12:38:36.147Z,10.10
2023-01-17T12:41:11.439Z,10.27
2023-01-17T12:43:43.979Z,11.23
2023-01-17T12:46:27.393Z,9.90
2023-01-17T12:49:16.033Z,9.88
2023-01-17T12:51:47.451Z,7.85
2023-01-17T12:54:36.153Z,9.98
2023-01-17T12:57:14.937Z,9.60
2023-01-17T12:59:58.921Z,9.95
2023-01-17T13:03:04.269Z,9.93
2023-01-17T13:05:41.974Z,9.68
2023-01-17T13:08:19.981Z,9.95
2023-01-17T13:10:58.676Z,10.20
2023-01-17T13:13:30.933Z,11.43
2023-01-17T13:16:20.402Z,10.93
2023-01-17T13:18:49.471Z,9.65
2023-01-17T13:21:32.122Z,10.43
2023-01-17T13:24:13.271Z,9.90
2023-01-17T13:26:55.983Z,10.15
2023-01-17T13:30:11.510Z,11.27
2023-01-17T13:32:45.750Z,10.65
2023-01-17T13:35:43.832Z,10.32
2023-01-17T13:38:20.480Z,11.45
2023-01-17T13:40:53.421Z,10.52
2023-01-17T13:43:35.165Z,10.73
2023-01-17T13:46:04.463Z,10.52
2023-01-17T13:48:38.393Z,10.60
2023-01-17T13:51:11.039Z,11.77
2023-01-17T13:53:38.926Z,11.70
2023-01-17T13:56:20.628Z,12.18
2023-01-17T13:58:50.486Z,12.88
2023-01-17T14:01:24.502Z,13.55
2023-01-17T14:03:53.075Z,10.93
2023-01-17T14:06:37.820Z,12.20
2023-01-17T14:09:11.563Z,12.23
2023-01-17T14:12:09.880Z,12.82
2023-01-17T14:14:40.458Z,12.73
2023-01-17T14:20:10.235Z,12.48
2023-01-17T14:22:48.523Z,13.80
2023-01-17T14:25:28.968Z,13.73
2023-01-17T14:28:08.281Z,13.18
2023-01-17T14:30:38.626Z,12.35
2023-01-17T14:33:16.241Z,14.05
2023-01-17T14:35:56.845Z,13.77
2023-01-17T14:38:33.160Z,14.73
2023-01-17T14:41:02.685Z,15.13
2023-01-17T14:43:33.434Z,15.38
2023-01-17T14:46:04.600Z,15.13
2023-01-17T14:48:32.460Z,14.02
2023-01-17T14:51:00.489Z,16.15
2023-01-17T14:53:33.235Z,15.82
2023-01-17T14:56:14.631Z,15.82
2023-01-17T14:58:42.514Z,16.48
2023-01-17T15:01:13.961Z,15.30
2023-01-17T15:03:55.673Z,16.38
2023-01-17T15:06:27.963Z,15.65
2023-01-17T15:08:55.810Z,17.90
2023-01-17T15:11:26.907Z,16.70
2023-01-17T15:13:57.634Z,17.85
2023-01-17T15:16:29.299Z,18.48
2023-01-17T15:18:57.880Z,19.77
2023-01-17T15:21:32.435Z,18.65
2023-01-17T15:24:08.484Z,17.13
2023-01-17T15:26:41.008Z,19.98
2023-01-17T15:29:18.044Z,18.52
2023-01-17T15:31:51.212Z,18.10
2023-01-17T15:34:22.722Z,19.67
2023-01-17T15:36:51.007Z,18.17
2023-01-17T15:39:23.076Z,20.13
2023-01-17T15:42:10.282Z,19.63
2023-01-17T15:44:49.365Z,20.40
2023-01-17T15:47:38.289Z,21.67
2023-01-17T15:50:32.138Z,21.35
2023-01-17T15:53:06.608Z,20.88
2023-01-17T15:55:38.199Z,22.05
2023-01-17T15:58:29.978Z,20.73
2023-01-17T16:01:04.648Z,20.52
2023-01-17T16:05:20.384Z,20.83
2023-01-17T16:07:56.860Z,19.65
2023-01-17T16:10:45.404Z,20.45
2023-01-17T16:13:20.180Z,19.25
2023-01-17T16:16:23.598Z,18.98
2023-01-17T16:19:02.724Z,20.52
2023-01-17T16:21:32.379Z,19.13
2023-01-17T16:24:12.019Z,20.08
2023-01-17T16:26:41.177Z,20.65
2023-01-17T16:29:10.646Z,20.15
2023-01-17T16:31:44.025Z,18.75
2023-01-17T16:34:15.247Z,19.67
2023-01-17T16:37:08.326Z,20.00
2023-01-17T16:39:47.210Z,18.55
2023-01-17T16:42:18.897Z,19.20
2023-01-17T16:44:50.018Z,17.65
2023-01-17T16:47:21.951Z,20.40
2023-01-17T16:49:50.013Z,19.35
2023-01-17T16:52:20.967Z,19.13
2023-01-17T16:54:52.689Z,20.92
2023-01-17T16:57:35.682Z,19.73
2023-01-17T17:00:08.430Z,19.75
2023-01-17T17:05:41.344Z,21.25
2023-01-17T17:08:10.520Z,21.35
2023-01-17T17:11:28.721Z,23.05
2023-01-17T17:14:01.654Z,20.40
2023-01-17T17:16:33.165Z,19.80
2023-01-17T17:19:03.902Z,21.63
2023-01-17T17:24:41.171Z,20.10
2023-01-17T17:30:36.825Z,19.30
2023-01-17T17:33:09.777Z,20.20
2023-01-17T17:35:38.894Z,20.63
2023-01-17T17:38:18.065Z,20.50
2023-01-17T17:41:00.156Z,21.40
2023-01-17T17:43:39.463Z,21.10
2023-01-17T17:46:13.774Z,20.58
2023-01-17T17:48:48.107Z,20.65
2023-01-17T17:51:38.299Z,22.17
2023-01-17T17:54:23.065Z,21.38
2023-01-17T17:57:03.340Z,20.00
2023-01-17T18:04:17.520Z,21.92
2023-01-17T18:07:12.425Z,22.48
2023-01-17T18:15:15.899Z,18.83
2023-01-17T18:17:48.799Z,20.20
2023-01-17T18:20:17.294Z,19.50
2023-01-17T18:22:49.037Z,18.05
2023-01-17T18:25:18.115Z,20.38
2023-01-17T18:27:46.801Z,20.50
2023-01-17T18:30:26.082Z,19.08
2023-01-17T18:32:56.003Z,19.48
2023-01-17T18:35:31.089Z,19.70
2023-01-17T18:38:07.380Z,21.25
2023-01-17T18:40:41.734Z,22.27
2023-01-17T18:43:15.760Z,21.20
2023-01-17T18:45:56.057Z,19.95
2023-01-17T18:48:29.522Z,20.33
2023-01-17T18:51:03.685Z,21.27
2023-01-17T18:53:34.426Z,21.42
2023-01-17T18:56:06.068Z,22.65
2023-01-17T18:58:41.950Z,22.88
2023-01-17T19:01:17.937Z,20.60
2023-01-17T19:03:51.992Z,21.88
2023-01-17T19:06:26.135Z,23.38
2023-01-17T19:08:58.433Z,23.02
2023-01-17T19:11:33.718Z,22.50
2023-01-17T19:14:02.225Z,22.33
2023-01-17T19:16:34.934Z,22.60
2023-01-17T19:19:05.924Z,25.63
2023-01-17T19:21:36.592Z,23.48
2023-01-17T19:24:32.301Z,23.75
2023-01-17T19:27:00.259Z,23.45
2023-01-17T19:29:28.896Z,22.48
2023-01-17T19:31:58.974Z,23.75
2023-01-17T19:34:26.942Z,21.83
2023-01-17T19:36:58.291Z,22.58
2023-01-17T19:39:41.496Z,22.05
2023-01-17T19:42:15.648Z,22.48
2023-01-17T19:44:46.623Z,21.30
2023-01-17T19:47:20.630Z,21.33
2023-01-17T19:49:49.712Z,21.80
2023-01-17T19:52:26.380Z,23.00
2023-01-17T19:54:54.500Z,22.63
2023-01-17T19:57:35.529Z,20.63
2023-01-17T20:00:09.202Z,23.23
2023-01-17T20:02:40.631Z,22.25
2023-01-17T20:05:09.332Z,22.02
2023-01-17T20:07:37.516Z,23.55
2023-01-17T20:10:06.016Z,22.88
2023-01-17T20:12:33.978Z,23.85
2023-01-17T20:15:01.882Z,24.00
2023-01-17T20:17:29.944Z,22.35
2023-01-17T20:19:58.083Z,23.88
2023-01-17T20:22:26.318Z,22.40
2023-01-17T20:24:54.316Z,24.33
2023-01-17T20:27:26.715Z,25.38
2023-01-17T20:29:54.614Z,22.70
2023-01-17T20:32:22.430Z,24.08
2023-01-17T20:34:51.476Z,24.85
2023-01-17T20:37:19.220Z,24.13
2023-01-17T20:39:48.105Z,23.92
2023-01-17T20:42:15.962Z,23.33
2023-01-17T20:44:43.829Z,25.17
2023-01-17T20:47:11.669Z,22.35
2023-01-17T20:49:41.708Z,25.48
2023-01-17T20:52:09.623Z,25.23
2023-01-17T20:54:37.595Z,24.88
2023-01-17T20:57:05.596Z,22.85
2023-01-17T20:59:34.097Z,25.50
2023-01-17T21:02:03.301Z,26.63
2023-01-17T21:04:31.411Z,25.48
2023-01-17T21:06:59.345Z,27.63
2023-01-17T21:09:27.609Z,24.80
2023-01-17T21:12:01.335Z,26.40
2023-01-17T21:14:29.600Z,27.38
2023-01-17T21:16:57.797Z,25.80
2023-01-17T21:19:26.032Z,26.60
2023-01-17T21:21:54.130Z,24.80
2023-01-17T21:24:22.079Z,25.50
2023-01-17T21:26:51.585Z,23.23
2023-01-17T21:29:19.518Z,25.58
2023-01-17T21:31:47.773Z,26.30
2023-01-17T21:34:18.273Z,22.73
2023-01-17T21:36:49.970Z,24.08
2023-01-17T21:39:20.112Z,23.75
2023-01-17T21:47:18.489Z,23.65
2023-01-17T21:50:06.374Z,25.67
2023-01-17T21:53:09.004Z,22.42
2023-01-17T21:56:08.812Z,23.10
2023-01-17T21:58:45.056Z,24.42
2023-01-17T22:08:23.672Z,23.05
2023-01-17T22:10:52.006Z,21.88
2023-01-17T22:13:20.381Z,23.58
2023-01-17T22:16:02.453Z,23.67
2023-01-17T22:18:31.229Z,21.33
2023-01-17T22:21:03.343Z,21.70
2023-01-17T22:23:31.457Z,21.33
2023-01-17T22:26:19.105Z,21.73
2023-01-17T22:28:58.174Z,21.80
2023-01-17T22:31:33.984Z,20.23
2023-01-17T22:34:04.968Z,22.00
2023-01-17T22:36:33.857Z,21.65
2023-01-17T22:39:11.576Z,20.38
2023-01-17T23:14:55.254Z,17.15
2023-01-17T23:18:17.575Z,17.73
2023-01-17T23:20:48.767Z,16.73
2023-01-17T23:23:38.036Z,14.73
2023-01-17T23:26:06.457Z,14.65
2023-01-17T23:28:37.727Z,15.75
2023-01-17T23:31:06.725Z,15.63
2023-01-17T23:34:16.237Z,15.15
2023-01-17T23:36:51.002Z,14.45
2023-01-17T23:39:20.837Z,15.00
2023-01-17T23:42:19.368Z,13.77
2023-01-17T23:44:51.808Z,11.65
2023-01-17T23:47:37.358Z,11.52
2023-01-17T23:50:07.302Z,14.60
2023-01-17T23:52:37.644Z,12.95
2023-01-17T23:55:24.323Z,12.90
2023-01-17T23:58:05.956Z,12.75
